Time;durP1;ratioP1;P1;durP2;ratioP2;P2;SDS_P1;SDS_P2;PMS_P1;PMS_P2;Temp;Humidity;BMP_temperature;BMP_pressure;BME280_temperature;BME280_humidity;BME280_pressure;Samples;Min_cycle;Max_cycle;Signal;HPM_P1;HPM_P2
2021/05/17 12:41:09;;;;;;;1.20;1.00;;;11.80;99.90;;;;;;5108203;27;811967;-77
2021/05/17 12:43:36;;;;;;;0.50;0.30;;;11.70;99.90;;;;;;5128772;28;20194;-78
2021/05/17 12:46:04;;;;;;;0.50;0.40;;;11.70;99.90;;;;;;5128242;28;20298;-77
2021/05/17 12:48:33;;;;;;;2.90;1.58;;;11.70;99.90;;;;;;5129487;28;20591;-78
2021/05/17 12:51:01;;;;;;;0.80;0.80;;;11.70;99.90;;;;;;5129962;28;20266;-77
2021/05/17 12:53:29;;;;;;;0.77;0.57;;;11.70;99.90;;;;;;5128598;28;20205;-77
2021/05/17 12:55:57;;;;;;;0.98;0.85;;;11.70;99.90;;;;;;5129372;28;20195;-76
2021/05/17 12:58:33;;;;;;;0.50;0.40;;;11.90;99.90;;;;;;5128540;28;20199;-77
2021/05/17 13:01:02;;;;;;;0.77;0.77;;;12.10;99.90;;;;;;5129322;28;20223;-77
2021/05/17 13:03:34;;;;;;;1.10;1.08;;;12.30;99.90;;;;;;5129108;28;20237;-77
2021/05/17 13:06:05;;;;;;;3.35;1.55;;;12.50;99.90;;;;;;5129034;28;20219;-79
2021/05/17 13:08:56;;;;;;;1.83;1.00;;;12.50;99.90;;;;;;5129651;28;20202;-77
2021/05/17 13:11:28;;;;;;;1.25;1.25;;;12.80;99.90;;;;;;5124339;28;20438;-78
2021/05/17 13:14:02;;;;;;;0.50;0.30;;;12.90;99.90;;;;;;5128353;28;20192;-77
2021/05/17 13:16:32;;;;;;;1.50;1.45;;;12.80;99.90;;;;;;5129067;28;20444;-78
2021/05/17 13:19:09;;;;;;;3.22;1.38;;;12.80;99.90;;;;;;5129153;28;20188;-78
2021/05/17 13:21:45;;;;;;;1.63;1.52;;;12.80;99.90;;;;;;5129165;28;20172;-79
2021/05/17 13:30:10;;;;;;;0.50;0.45;;;12.70;99.90;;;;;;5128967;28;20695;-77
2021/05/17 13:32:38;;;;;;;0.70;0.60;;;12.70;99.90;;;;;;5128872;28;20202;-77
2021/05/17 13:35:07;;;;;;;0.50;0.30;;;12.80;99.90;;;;;;5128646;28;20621;-77
2021/05/17 13:37:34;;;;;;;0.50;0.40;;;12.70;99.90;;;;;;5128698;28;20210;-77
2021/05/17 13:40:00;;;;;;;0.50;0.40;;;12.70;99.90;;;;;;5128416;28;20580;-76
2021/05/17 13:42:27;;;;;;;1.13;1.05;;;12.70;99.90;;;;;;5128646;28;20211;-79
2021/05/17 13:44:54;;;;;;;0.50;0.50;;;12.70;99.90;;;;;;5128252;28;20282;-74
2021/05/17 13:47:20;;;;;;;0.50;0.40;;;12.60;99.90;;;;;;5128488;28;20202;-77
2021/05/17 13:49:47;;;;;;;0.50;0.40;;;12.60;99.90;;;;;;5128348;28;20335;-73
2021/05/17 13:52:13;;;;;;;0.50;0.40;;;12.60;99.90;;;;;;5116892;28;20188;-76
2021/05/17 13:54:39;;;;;;;1.23;1.13;;;12.60;99.90;;;;;;5114507;28;20215;-77
2021/05/17 13:57:06;;;;;;;0.50;0.40;;;12.70;99.90;;;;;;5114651;28;20194;-78
2021/05/17 13:59:32;;;;;;;3.30;1.50;;;12.70;99.90;;;;;;5114033;28;20217;-77
2021/05/17 14:01:59;;;;;;;2.08;1.98;;;12.80;99.90;;;;;;5114405;28;20684;-77
2021/05/17 14:04:27;;;;;;;0.70;0.70;;;12.70;99.90;;;;;;5114566;28;20188;-77
2021/05/17 14:06:54;;;;;;;1.15;1.15;;;12.60;99.90;;;;;;5114924;28;20184;-77
2021/05/17 14:09:21;;;;;;;1.88;1.77;;;12.50;99.90;;;;;;5118509;27;20219;-80
2021/05/17 14:11:47;;;;;;;0.50;0.40;;;12.50;99.90;;;;;;5117266;27;20641;-78
2021/05/17 14:14:14;;;;;;;1.90;0.65;;;12.40;99.90;;;;;;5113820;28;20199;-78
2021/05/17 14:16:41;;;;;;;0.98;0.57;;;12.40;99.90;;;;;;5114535;28;20195;-77
2021/05/17 14:19:09;;;;;;;0.50;0.40;;;12.30;99.90;;;;;;5114474;28;20697;-77
2021/05/17 14:21:36;;;;;;;0.50;0.30;;;12.40;99.90;;;;;;5114637;28;20203;-78
2021/05/17 14:24:03;;;;;;;0.50;0.40;;;12.60;99.90;;;;;;5113843;28;20197;-77
2021/05/17 14:26:29;;;;;;;0.68;0.68;;;12.80;99.90;;;;;;5112691;28;20196;-78
2021/05/17 14:28:55;;;;;;;0.50;0.30;;;13.00;99.90;;;;;;5114095;28;20185;-77
2021/05/17 14:31:22;;;;;;;1.08;0.65;;;13.30;99.90;;;;;;5114431;28;20195;-77
2021/05/17 14:33:49;;;;;;;1.17;1.07;;;13.70;99.90;;;;;;5113682;28;20309;-79
2021/05/17 14:36:17;;;;;;;0.60;0.50;;;14.10;99.90;;;;;;5113836;28;20457;-78
2021/05/17 14:38:44;;;;;;;0.50;0.50;;;14.50;99.90;;;;;;5113737;28;20439;-78
2021/05/17 14:41:10;;;;;;;0.50;0.40;;;14.80;99.90;;;;;;5113718;28;20536;-78
2021/05/17 14:43:36;;;;;;;0.60;0.40;;;14.90;99.90;;;;;;5113471;28;20469;-78
2021/05/17 14:46:04;;;;;;;1.80;1.63;;;14.90;99.90;;;;;;5113591;28;20454;-78
2021/05/17 14:48:31;;;;;;;1.20;1.10;;;14.70;99.90;;;;;;5113448;28;20624;-77
2021/05/17 14:50:57;;;;;;;2.10;2.00;;;14.10;99.90;;;;;;5113661;28;20453;-78
2021/05/17 14:53:24;;;;;;;0.50;0.40;;;13.50;99.90;;;;;;5113003;28;20552;-79
2021/05/17 14:55:51;;;;;;;0.50;0.40;;;13.10;99.90;;;;;;5113188;28;20200;-78
2021/05/17 14:58:17;;;;;;;0.50;0.40;;;13.00;99.90;;;;;;5113857;28;20189;-78
2021/05/17 15:00:45;;;;;;;0.50;0.30;;;12.70;99.90;;;;;;5113088;28;20219;-78
2021/05/17 15:03:11;;;;;;;0.50;0.40;;;12.60;99.90;;;;;;5112008;28;20248;-78
2021/05/17 15:05:37;;;;;;;0.50;0.40;;;12.50;99.90;;;;;;5113228;28;20192;-78
2021/05/17 15:08:04;;;;;;;2.25;0.70;;;12.40;99.90;;;;;;5112909;28;20199;-78
2021/05/17 15:10:32;;;;;;;0.50;0.40;;;12.30;99.90;;;;;;5113125;28;20223;-78
2021/05/17 15:12:58;;;;;;;0.50;0.38;;;12.20;99.90;;;;;;5112693;28;20257;-77
2021/05/17 15:15:26;;;;;;;0.50;0.30;;;12.20;99.90;;;;;;5113199;28;20188;-78
2021/05/17 16:07:57;;;;;;;1.67;1.58;;;12.00;99.90;;;;;;5129336;27;20595;-78
2021/05/17 16:10:24;;;;;;;3.97;2.92;;;11.90;99.90;;;;;;5121096;27;20211;-74
2021/05/17 16:12:56;;;;;;;0.85;0.77;;;12.00;99.90;;;;;;5120627;28;20637;-78
2021/05/17 16:15:26;;;;;;;0.50;0.30;;;12.00;99.90;;;;;;5129474;28;20176;-78
2021/05/17 16:23:25;;;;;;;0.77;0.65;;;12.00;99.90;;;;;;5123365;28;20191;-77
2021/05/17 16:25:51;;;;;;;0.50;0.40;;;12.10;99.90;;;;;;5098609;28;20293;-78
2021/05/17 16:28:18;;;;;;;1.13;0.80;;;12.10;99.90;;;;;;5108336;28;20675;-78
2021/05/17 16:30:44;;;;;;;0.70;0.60;;;12.30;99.90;;;;;;5108286;28;20220;-78
2021/05/17 16:33:10;;;;;;;0.50;0.40;;;12.30;99.90;;;;;;5107924;28;20234;-78
2021/05/17 16:35:36;;;;;;;0.50;0.40;;;12.50;99.90;;;;;;5108830;28;20201;-78
2021/05/17 16:38:04;;;;;;;0.50;0.40;;;12.60;99.90;;;;;;5108823;28;20244;-78
2021/05/17 16:40:31;;;;;;;1.77;0.82;;;12.70;99.90;;;;;;5115095;28;20844;-78
2021/05/17 16:42:57;;;;;;;0.50;0.30;;;12.60;99.90;;;;;;5108974;28;20189;-78
2021/05/17 16:45:24;;;;;;;0.50;0.30;;;12.50;99.90;;;;;;5108144;28;20193;-78
2021/05/17 16:47:50;;;;;;;0.50;0.40;;;12.40;99.90;;;;;;5108597;28;20224;-78
2021/05/17 16:50:17;;;;;;;0.60;0.60;;;12.30;99.90;;;;;;5108009;28;20776;-78
2021/05/17 16:52:43;;;;;;;0.95;0.88;;;12.30;99.90;;;;;;5108348;28;20201;-78
2021/05/17 16:55:12;;;;;;;0.50;0.30;;;12.20;99.90;;;;;;5108121;28;20203;-78
2021/05/17 16:57:40;;;;;;;0.50;0.40;;;12.10;99.90;;;;;;5108249;28;20192;-78
2021/05/17 17:00:08;;;;;;;0.50;0.30;;;12.10;99.90;;;;;;5108038;28;20276;-77
2021/05/17 17:02:34;;;;;;;0.50;0.40;;;12.20;99.90;;;;;;5108451;28;20189;-78
2021/05/17 17:05:02;;;;;;;0.50;0.40;;;12.20;99.90;;;;;;5107809;28;20193;-78
2021/05/17 17:07:28;;;;;;;0.50;0.40;;;12.20;99.90;;;;;;5107774;28;20222;-78
2021/05/17 17:09:55;;;;;;;0.50;0.32;;;12.20;99.90;;;;;;5109010;28;20221;-78
2021/05/17 17:12:21;;;;;;;0.50;0.30;;;12.30;99.90;;;;;;5119556;27;20185;-78
2021/05/17 17:14:49;;;;;;;2.25;1.00;;;12.30;99.90;;;;;;5128256;28;20192;-78
2021/05/17 17:17:15;;;;;;;0.50;0.40;;;12.40;99.90;;;;;;5126366;28;20192;-78
2021/05/17 17:19:42;;;;;;;0.50;0.30;;;12.40;99.90;;;;;;5099448;28;20219;-78
2021/05/17 17:22:08;;;;;;;0.50;0.40;;;12.50;99.90;;;;;;5085910;28;20247;-78
2021/05/17 17:24:41;;;;;;;0.65;0.65;;;12.50;99.90;;;;;;5093325;28;20539;-77
2021/05/17 17:27:08;;;;;;;1.05;0.98;;;12.60;99.90;;;;;;5094328;28;20323;-79
2021/05/17 17:29:35;;;;;;;0.50;0.50;;;12.60;99.90;;;;;;5094262;28;20615;-77
2021/05/17 17:32:03;;;;;;;0.50;0.40;;;12.60;99.90;;;;;;5094223;28;20195;-76
2021/05/17 17:34:29;;;;;;;0.50;0.50;;;12.60;99.90;;;;;;5093677;28;20200;-78
2021/05/17 17:36:56;;;;;;;0.73;0.73;;;12.60;99.90;;;;;;5093579;28;20245;-77
2021/05/17 17:39:22;;;;;;;1.35;1.25;;;12.60;99.90;;;;;;5093563;28;20220;-78
2021/05/17 17:41:49;;;;;;;3.47;1.38;;;12.60;99.90;;;;;;5103075;28;20201;-78
2021/05/17 17:44:15;;;;;;;0.50;0.40;;;12.60;99.90;;;;;;5114024;28;20191;-78
2021/05/17 17:46:42;;;;;;;0.50;0.40;;;12.60;99.90;;;;;;5114271;28;20587;-78
2021/05/17 17:49:10;;;;;;;0.50;0.35;;;12.60;99.90;;;;;;5114452;28;20299;-78
2021/05/17 17:51:38;;;;;;;0.50;0.40;;;12.60;99.90;;;;;;5113695;28;20199;-78
2021/05/17 17:54:06;;;;;;;0.50;0.40;;;12.70;99.90;;;;;;5113015;28;20751;-76
2021/05/17 17:56:32;;;;;;;3.53;2.72;;;12.70;99.90;;;;;;5114431;28;20565;-78
2021/05/17 17:58:58;;;;;;;0.50;0.30;;;12.70;99.90;;;;;;5113986;28;20189;-77
2021/05/17 18:01:25;;;;;;;2.80;1.00;;;12.80;99.90;;;;;;5114202;28;20199;-78
2021/05/17 18:03:53;;;;;;;0.50;0.40;;;12.70;99.90;;;;;;5094809;28;20863;-77
2021/05/17 18:06:21;;;;;;;0.50;0.40;;;12.70;99.90;;;;;;5093598;28;20784;-77
2021/05/17 18:08:47;;;;;;;0.50;0.40;;;12.70;99.90;;;;;;5093242;28;20277;-75
2021/05/17 18:11:15;;;;;;;0.50;0.30;;;12.70;99.90;;;;;;5105378;28;20184;-78
2021/05/17 18:13:44;;;;;;;0.50;0.40;;;12.70;99.90;;;;;;5113315;28;20223;-78
2021/05/17 18:16:11;;;;;;;1.08;0.60;;;12.70;99.90;;;;;;5113713;28;20574;-79
2021/05/17 18:18:37;;;;;;;0.50;0.30;;;12.70;99.90;;;;;;5107995;28;20184;-73
2021/05/17 18:21:03;;;;;;;0.70;0.70;;;12.70;99.90;;;;;;5093553;28;20227;-78
2021/05/17 18:23:30;;;;;;;0.55;0.55;;;12.60;99.90;;;;;;5092954;28;20394;-77
2021/05/17 18:25:57;;;;;;;0.50;0.30;;;12.60;99.90;;;;;;5093412;28;20194;-76
2021/05/17 18:28:23;;;;;;;0.50;0.40;;;12.60;99.90;;;;;;5092520;28;20203;-78
2021/05/17 18:30:51;;;;;;;0.50;0.40;;;12.70;99.90;;;;;;5092350;28;20636;-73
2021/05/17 18:33:23;;;;;;;1.30;1.20;;;12.70;99.90;;;;;;5092395;28;20271;-74
2021/05/17 18:35:58;;;;;;;0.50;0.40;;;12.70;99.90;;;;;;5093351;28;20824;-77
2021/05/17 18:38:26;;;;;;;0.50;0.40;;;12.80;99.90;;;;;;5092959;28;20225;-77
2021/05/17 18:40:54;;;;;;;3.05;2.85;;;12.80;99.90;;;;;;5102137;28;20217;-77
2021/05/17 18:43:39;;;;;;;0.82;0.82;;;12.80;99.90;;;;;;5112856;28;20673;-77
2021/05/17 18:46:05;;;;;;;0.50;0.40;;;12.80;99.90;;;;;;5113174;28;20212;-78
2021/05/17 18:48:32;;;;;;;1.52;1.40;;;12.80;99.90;;;;;;5113223;28;20650;-77
2021/05/17 18:50:58;;;;;;;0.50;0.40;;;12.70;99.90;;;;;;5113146;28;20209;-78
2021/05/17 18:53:25;;;;;;;0.50;0.40;;;12.50;99.90;;;;;;5112323;28;20680;-79
2021/05/17 18:55:52;;;;;;;0.95;0.95;;;12.50;99.90;;;;;;5112480;28;20681;-79
2021/05/17 18:58:19;;;;;;;1.77;1.67;;;12.40;99.90;;;;;;5113329;28;20286;-78
2021/05/17 19:00:46;;;;;;;0.50;0.40;;;12.30;99.90;;;;;;5112964;28;20228;-78
2021/05/17 19:03:12;;;;;;;0.52;0.40;;;12.20;99.90;;;;;;5099950;28;20290;-76
2021/05/17 19:05:39;;;;;;;1.75;0.95;;;12.00;99.90;;;;;;5091659;28;20561;-77
2021/05/17 19:08:05;;;;;;;0.50;0.40;;;11.90;99.90;;;;;;5092450;28;20255;-77
2021/05/17 19:13:09;;;;;;;0.50;0.40;;;11.80;99.90;;;;;;5009905;28;20656;-78
2021/05/17 19:15:36;;;;;;;0.50;0.40;;;11.70;99.90;;;;;;5014707;28;20198;-80
2021/05/17 19:18:03;;;;;;;0.50;0.40;;;11.70;99.90;;;;;;5019872;28;20218;-81
2021/05/17 19:20:29;;;;;;;1.20;1.10;;;11.60;99.90;;;;;;5017534;28;20199;-83
2021/05/17 19:22:56;;;;;;;1.58;1.48;;;11.60;99.90;;;;;;5017863;28;20201;-82
2021/05/17 19:25:22;;;;;;;0.50;0.40;;;11.60;99.90;;;;;;5017605;28;20205;-82
2021/05/17 19:27:49;;;;;;;0.50;0.40;;;11.60;99.90;;;;;;5017490;28;20237;-82
2021/05/17 19:30:17;;;;;;;0.50;0.40;;;11.50;99.90;;;;;;5018170;28;20199;-82
2021/05/17 19:32:45;;;;;;;2.15;1.25;;;11.50;99.90;;;;;;5017441;28;20223;-81
2021/05/17 19:35:12;;;;;;;0.50;0.30;;;11.50;99.90;;;;;;5018196;28;20596;-82
2021/05/17 19:37:39;;;;;;;0.50;0.40;;;11.50;99.90;;;;;;5017958;28;20200;-81
2021/05/17 19:40:12;;;;;;;0.50;0.30;;;11.50;99.90;;;;;;5018157;28;20301;-82
2021/05/17 19:42:40;;;;;;;0.50;0.40;;;11.50;99.90;;;;;;5017229;28;20584;-81
2021/05/17 19:45:08;;;;;;;0.50;0.40;;;11.50;99.90;;;;;;5017984;28;20200;-82
2021/05/17 19:47:35;;;;;;;0.50;0.30;;;11.40;99.90;;;;;;5018178;28;20257;-82
2021/05/17 19:50:05;;;;;;;0.50;0.40;;;11.40;99.90;;;;;;5018451;28;20195;-81
2021/05/17 19:52:31;;;;;;;0.50;0.40;;;11.40;99.90;;;;;;5018733;28;20227;-81
2021/05/17 19:54:58;;;;;;;0.50;0.38;;;11.30;99.90;;;;;;5018033;28;20206;-81
2021/05/17 19:57:24;;;;;;;0.50;0.40;;;11.30;99.90;;;;;;5018106;28;20226;-82
2021/05/17 19:59:50;;;;;;;0.50;0.40;;;11.20;99.90;;;;;;5017887;28;20199;-82
2021/05/17 20:02:17;;;;;;;0.50;0.40;;;11.30;99.90;;;;;;5020559;28;20219;-81
2021/05/17 20:04:44;;;;;;;0.50;0.30;;;11.20;99.90;;;;;;5016936;28;20207;-82
2021/05/17 20:07:12;;;;;;;0.50;0.40;;;11.20;99.90;;;;;;5018535;28;20313;-82
2021/05/17 20:09:40;;;;;;;0.50;0.38;;;11.20;99.90;;;;;;5018332;28;20734;-81
2021/05/17 20:12:07;;;;;;;0.50;0.40;;;11.30;99.90;;;;;;5018439;28;20218;-82
2021/05/17 20:14:33;;;;;;;0.50;0.40;;;11.30;99.90;;;;;;5017812;28;20649;-82
2021/05/17 20:16:59;;;;;;;0.50;0.38;;;11.30;99.90;;;;;;5021382;28;20194;-82
2021/05/17 20:19:26;;;;;;;0.50;0.40;;;11.30;99.90;;;;;;5017807;28;20265;-83
2021/05/17 20:21:53;;;;;;;0.50;0.40;;;11.30;99.90;;;;;;5017655;28;20223;-83
2021/05/17 20:24:20;;;;;;;0.50;0.40;;;11.30;99.90;;;;;;5017376;28;20199;-82
2021/05/17 20:26:46;;;;;;;0.50;0.40;;;11.20;99.90;;;;;;5018022;28;20241;-82
2021/05/17 20:29:12;;;;;;;0.50;0.40;;;11.20;99.90;;;;;;5018212;28;20207;-84
2021/05/17 20:31:39;;;;;;;0.60;0.60;;;11.20;99.90;;;;;;5018453;28;20225;-82
2021/05/17 20:34:12;;;;;;;0.50;0.40;;;11.20;99.90;;;;;;5016833;28;20199;-82
2021/05/17 20:36:39;;;;;;;0.70;0.70;;;11.20;99.90;;;;;;5016687;28;20230;-82
2021/05/17 20:39:07;;;;;;;1.60;1.50;;;11.20;99.90;;;;;;5017092;28;20222;-82
2021/05/17 20:41:35;;;;;;;0.50;0.40;;;11.30;99.90;;;;;;5016387;28;20788;-79
2021/05/17 20:44:01;;;;;;;0.50;0.40;;;11.20;99.90;;;;;;5016776;28;20246;-82
2021/05/17 20:46:28;;;;;;;0.50;0.30;;;11.10;99.90;;;;;;5017548;28;20725;-83
2021/05/17 20:48:55;;;;;;;0.50;0.40;;;11.20;99.90;;;;;;5017291;28;20202;-82
2021/05/17 20:51:23;;;;;;;0.50;0.40;;;11.20;99.90;;;;;;5018392;28;20222;-83
2021/05/17 20:53:50;;;;;;;0.60;0.60;;;11.20;99.90;;;;;;5019041;28;20210;-82
2021/05/17 20:56:16;;;;;;;0.50;0.40;;;11.20;99.90;;;;;;5021038;28;20194;-82
2021/05/17 20:58:43;;;;;;;0.50;0.40;;;11.20;99.90;;;;;;5020694;28;20209;-81
2021/05/17 21:01:10;;;;;;;0.50;0.40;;;11.20;99.90;;;;;;5020943;28;20298;-83
2021/05/17 21:03:36;;;;;;;0.50;0.40;;;11.20;99.90;;;;;;5020991;28;20201;-81
2021/05/17 21:06:03;;;;;;;2.30;2.20;;;11.10;99.90;;;;;;5021474;28;20203;-82
2021/05/17 21:08:30;;;;;;;0.50;0.40;;;11.10;99.90;;;;;;5022039;28;20561;-83
2021/05/17 21:10:57;;;;;;;0.50;0.40;;;11.10;99.90;;;;;;5021032;28;20223;-82
2021/05/17 21:13:25;;;;;;;0.95;0.95;;;11.10;99.90;;;;;;5021628;28;20266;-82
2021/05/17 21:15:53;;;;;;;2.35;2.25;;;11.10;99.90;;;;;;5021597;28;20249;-82
2021/05/17 21:18:21;;;;;;;0.50;0.40;;;11.10;99.90;;;;;;5021335;28;20206;-82
2021/05/17 21:20:49;;;;;;;0.50;0.40;;;11.10;99.90;;;;;;5022314;28;20262;-82
2021/05/17 21:23:16;;;;;;;2.22;2.13;;;11.20;99.90;;;;;;5025099;28;20203;-82
2021/05/17 21:25:45;;;;;;;0.50;0.40;;;11.20;99.90;;;;;;5031436;28;20203;-82
2021/05/17 21:28:12;;;;;;;0.50;0.40;;;11.20;99.90;;;;;;5023146;28;20251;-83
2021/05/17 21:30:38;;;;;;;0.50;0.30;;;11.20;99.90;;;;;;5022739;28;20209;-81
2021/05/17 21:33:05;;;;;;;2.42;2.28;;;11.20;99.90;;;;;;5022364;28;20261;-80
2021/05/17 21:35:32;;;;;;;0.50;0.40;;;11.20;99.90;;;;;;5024101;28;20195;-83
2021/05/17 21:37:58;;;;;;;0.50;0.40;;;11.20;99.90;;;;;;5022868;28;20195;-81
2021/05/17 21:40:26;;;;;;;0.50;0.40;;;11.20;99.90;;;;;;5022500;28;20286;-82
2021/05/17 21:42:52;;;;;;;0.50;0.30;;;11.20;99.90;;;;;;5023216;28;20240;-82
2021/05/17 21:45:18;;;;;;;0.50;0.40;;;11.20;99.90;;;;;;5023191;28;20195;-81
2021/05/17 21:47:45;;;;;;;0.50;0.40;;;11.20;99.90;;;;;;5023102;28;20218;-81
2021/05/17 21:50:15;;;;;;;0.50;0.40;;;11.20;99.90;;;;;;5022467;28;20224;-82
2021/05/17 21:52:42;;;;;;;0.50;0.40;;;11.20;99.90;;;;;;5022266;28;20219;-81
2021/05/17 21:55:09;;;;;;;0.50;0.30;;;11.10;99.90;;;;;;5021884;28;20221;-81
2021/05/17 21:57:36;;;;;;;0.50;0.30;;;11.10;99.90;;;;;;5021258;28;20569;-83
2021/05/17 22:00:23;;;;;;;0.57;0.57;;;11.10;99.90;;;;;;5021871;28;20286;-82
2021/05/17 22:02:49;;;;;;;0.98;0.93;;;11.10;99.90;;;;;;5021682;28;20720;-82
2021/05/17 22:05:17;;;;;;;0.60;0.50;;;11.10;99.90;;;;;;5020945;28;20665;-82
2021/05/17 22:10:27;;;;;;;0.50;0.40;;;11.00;99.90;;;;;;5021394;28;20201;-82
2021/05/17 22:12:54;;;;;;;0.50;0.40;;;10.90;99.90;;;;;;5020349;28;20285;-82
2021/05/17 22:15:20;;;;;;;0.50;0.40;;;10.90;99.90;;;;;;5019637;28;20231;-82
2021/05/17 22:17:47;;;;;;;0.50;0.40;;;10.90;99.90;;;;;;5020819;28;20293;-82
2021/05/17 22:20:14;;;;;;;0.50;0.47;;;10.90;99.90;;;;;;5019918;28;20203;-82
2021/05/17 22:22:41;;;;;;;0.50;0.40;;;10.90;99.90;;;;;;5020874;28;20309;-82
2021/05/17 22:25:08;;;;;;;6.40;5.85;;;10.90;99.90;;;;;;5020199;28;20203;-81
2021/05/17 22:27:35;;;;;;;0.68;0.43;;;10.90;99.90;;;;;;5019787;28;20241;-81
2021/05/17 22:30:01;;;;;;;1.73;1.20;;;10.90;99.90;;;;;;5021017;28;20199;-82
2021/05/17 22:32:27;;;;;;;0.50;0.40;;;10.90;99.90;;;;;;5022383;28;20215;-82
2021/05/17 22:34:54;;;;;;;0.50;0.40;;;10.90;99.90;;;;;;5021071;28;20205;-82
2021/05/17 22:37:20;;;;;;;1.13;0.68;;;10.80;99.90;;;;;;5019740;28;20199;-82
2021/05/17 22:39:47;;;;;;;4.53;1.85;;;10.80;99.90;;;;;;5018397;28;20202;-79
2021/05/17 22:42:13;;;;;;;0.50;0.40;;;10.80;99.90;;;;;;5018219;28;20223;-82
2021/05/17 22:44:40;;;;;;;1.20;1.15;;;10.80;99.90;;;;;;5024469;28;20213;-79
2021/05/17 22:47:07;;;;;;;0.50;0.40;;;10.70;99.90;;;;;;5024655;28;20215;-82
2021/05/17 22:49:33;;;;;;;0.50;0.40;;;10.70;99.90;;;;;;5019855;28;20206;-82
2021/05/17 22:51:59;;;;;;;1.20;1.20;;;10.60;99.90;;;;;;5019936;28;20229;-83
2021/05/17 22:54:27;;;;;;;2.15;1.95;;;10.50;99.90;;;;;;5018849;28;20675;-82
2021/05/17 22:56:54;;;;;;;0.50;0.40;;;10.40;99.90;;;;;;5019270;28;20202;-81
2021/05/17 22:59:20;;;;;;;3.53;1.15;;;10.40;99.90;;;;;;5021844;28;20195;-83
2021/05/17 23:01:47;;;;;;;0.50;0.40;;;10.30;99.90;;;;;;5023478;28;20260;-82
2021/05/17 23:04:13;;;;;;;0.50;0.40;;;10.30;99.90;;;;;;5023163;28;20209;-82
2021/05/17 23:06:39;;;;;;;0.85;0.85;;;10.20;99.90;;;;;;5020184;28;20216;-82
2021/05/17 23:09:06;;;;;;;0.50;0.40;;;10.20;99.90;;;;;;5021668;28;20202;-82
2021/05/17 23:11:33;;;;;;;0.50;0.40;;;10.10;99.90;;;;;;5020171;28;20231;-82
2021/05/17 23:14:00;;;;;;;0.50;0.40;;;10.10;99.90;;;;;;5020131;28;20262;-82
2021/05/17 23:16:26;;;;;;;1.63;1.52;;;10.10;99.90;;;;;;5019354;28;20260;-83
2021/05/17 23:18:54;;;;;;;0.50;0.40;;;10.00;99.90;;;;;;5019422;28;20194;-82
2021/05/17 23:21:24;;;;;;;0.50;0.40;;;9.90;99.90;;;;;;5019061;28;20222;-82
2021/05/17 23:23:56;;;;;;;0.50;0.40;;;9.90;99.90;;;;;;5020402;28;20191;-83
2021/05/17 23:29:08;;;;;;;0.50;0.40;;;9.90;99.90;;;;;;5020151;28;20221;-83
2021/05/17 23:31:35;;;;;;;0.80;0.80;;;9.90;99.90;;;;;;5019982;28;20558;-81
2021/05/17 23:34:02;;;;;;;0.50;0.40;;;9.90;99.90;;;;;;5019480;28;20196;-82
2021/05/17 23:36:29;;;;;;;0.80;0.60;;;9.80;99.90;;;;;;5019728;28;20194;-82
2021/05/17 23:38:55;;;;;;;0.50;0.40;;;9.80;99.90;;;;;;5019567;28;20643;-82
2021/05/17 23:41:21;;;;;;;0.50;0.40;;;9.80;99.90;;;;;;5019594;28;20225;-82
2021/05/17 23:43:47;;;;;;;0.50;0.40;;;9.80;99.90;;;;;;5019219;28;20197;-82
2021/05/17 23:46:15;;;;;;;0.50;0.40;;;9.70;99.90;;;;;;5019505;28;20251;-82
2021/05/17 23:48:41;;;;;;;0.50;0.40;;;9.70;99.90;;;;;;5019299;28;20202;-82
2021/05/17 23:51:07;;;;;;;0.50;0.40;;;9.70;99.90;;;;;;5018993;28;20217;-82
2021/05/17 23:53:34;;;;;;;0.50;0.40;;;9.70;99.90;;;;;;5018211;28;20566;-82
2021/05/17 23:56:00;;;;;;;0.50;0.40;;;9.80;99.90;;;;;;5019863;28;20210;-83
2021/05/17 23:58:27;;;;;;;0.50;0.40;;;9.90;99.90;;;;;;5018816;28;20258;-82
